Willcox, Arizona
Current Conditions -  °F | °C
As of 4:51 AM on Wednesday 22 Oct 2014 (Local Time) from KSAD Reporting Station
Clear Clear  
Wind Chill: 16°   Ceiling: Unl
Heat Index: 16°   Visibility: 10mi
Dew Point: 11°   Wind: 8mph
Humidity: 75%   Direction: 110°ESE
Pressure: 30"   Gusts: NA
Location:  32.25°N, 109.84°W
Report Text: KSAD 221151Z AUTO 11007KT 10SM CLR 16/11 A3000 RMK AO2 SLP119 T01560111 10172 20150 53004
Loading
Personal Weather Stations






























Interactive Weather Map
Tropical Storm Tracking
New forecast layout! Learn more

10-Day Weather Forecast

Advertisements
Track Severe Weather on mobile